Time;durP1;ratioP1;P1;durP2;ratioP2;P2;SDS_P1;SDS_P2;PMS_P1;PMS_P2;Temp;Humidity;BMP_temperature;BMP_pressure;BME280_temperature;BME280_humidity;BME280_pressure;Samples;Min_cycle;Max_cycle;Signal;HPM_P1;HPM_P2
2022/09/09 00:00:19;;;;;;;20.23;14.23;;;;;;;;;;6268338;22;20028;-75
2022/09/09 00:02:52;;;;;;;21.17;14.38;;;;;;;;;;6267232;22;20368;-76
2022/09/09 00:05:26;;;;;;;25.30;14.50;;;;;;;;;;6266572;22;20095;-76
2022/09/09 00:07:53;;;;;;;22.30;15.52;;;;;;;;;;6268861;22;20023;-76
2022/09/09 00:10:19;;;;;;;23.13;15.27;;;;;;;;;;6240711;22;20023;-77
2022/09/09 00:12:45;;;;;;;24.23;15.63;;;;;;;;;;6268266;22;20074;-75
2022/09/09 00:15:35;;;;;;;19.30;14.35;;;;;;;;;;6268586;22;20089;-76
2022/09/09 00:18:10;;;;;;;21.70;15.80;;;;;;;;;;6254922;22;20031;-76
2022/09/09 00:20:41;;;;;;;20.23;15.23;;;;;;;;;;6241269;22;20101;-75
2022/09/09 00:23:12;;;;;;;22.40;14.90;;;;;;;;;;6297113;22;20027;-77
2022/09/09 00:25:47;;;;;;;21.02;14.90;;;;;;;;;;6299039;22;20023;-76
2022/09/09 00:28:20;;;;;;;20.35;14.48;;;;;;;;;;6299952;22;20024;-75
2022/09/09 00:30:50;;;;;;;20.05;14.70;;;;;;;;;;6271549;22;20023;-76
2022/09/09 00:33:22;;;;;;;24.17;15.10;;;;;;;;;;6299284;22;20015;-76
2022/09/09 00:35:49;;;;;;;20.67;15.32;;;;;;;;;;6299078;22;20030;-76
2022/09/09 00:38:18;;;;;;;25.15;15.57;;;;;;;;;;6299249;22;20094;-76
2022/09/09 00:40:49;;;;;;;33.65;16.45;;;;;;;;;;6271694;22;20475;-76
2022/09/09 00:43:18;;;;;;;29.83;16.08;;;;;;;;;;6297992;22;20221;-75
2022/09/09 00:46:06;;;;;;;25.30;16.42;;;;;;;;;;6272787;22;20023;-76
2022/09/09 00:48:43;;;;;;;22.75;16.02;;;;;;;;;;6271778;22;20436;-76
2022/09/09 00:51:15;;;;;;;20.38;15.23;;;;;;;;;;6271698;22;20027;-76
2022/09/09 00:53:57;;;;;;;23.92;16.38;;;;;;;;;;6299024;22;20019;-75
2022/09/09 00:56:26;;;;;;;20.20;15.77;;;;;;;;;;6270808;22;20059;-76
2022/09/09 00:59:03;;;;;;;24.75;16.00;;;;;;;;;;6299746;22;20117;-76
2022/09/09 01:01:29;;;;;;;27.80;16.17;;;;;;;;;;6271476;22;20038;-76
2022/09/09 01:04:00;;;;;;;23.75;16.42;;;;;;;;;;6298713;22;20015;-76
2022/09/09 01:06:29;;;;;;;24.80;16.63;;;;;;;;;;6298388;22;20015;-76
2022/09/09 01:09:07;;;;;;;24.30;17.42;;;;;;;;;;6298808;22;20023;-76
2022/09/09 01:11:56;;;;;;;27.17;17.17;;;;;;;;;;6299200;22;20720;-76
2022/09/09 01:14:35;;;;;;;26.73;17.05;;;;;;;;;;6286204;22;20027;-75
2022/09/09 01:17:05;;;;;;;23.08;17.05;;;;;;;;;;6298797;22;20041;-76
2022/09/09 01:19:34;;;;;;;26.00;15.93;;;;;;;;;;6271323;22;20030;-75
2022/09/09 01:22:21;;;;;;;27.30;16.52;;;;;;;;;;6271564;22;20439;-75
2022/09/09 01:25:10;;;;;;;25.05;16.27;;;;;;;;;;6252277;22;20454;-75
2022/09/09 01:27:36;;;;;;;27.15;16.75;;;;;;;;;;6271444;22;20030;-75
2022/09/09 01:30:05;;;;;;;23.17;16.98;;;;;;;;;;6299001;22;20092;-76
2022/09/09 01:32:40;;;;;;;28.10;18.45;;;;;;;;;;6271001;22;20333;-76
2022/09/09 01:35:30;;;;;;;23.70;16.20;;;;;;;;;;6270415;22;20390;-75
2022/09/09 01:37:56;;;;;;;29.92;17.23;;;;;;;;;;6286743;22;20356;-77
2022/09/09 01:40:22;;;;;;;25.70;15.80;;;;;;;;;;6245063;22;20023;-75
2022/09/09 01:42:49;;;;;;;28.02;16.85;;;;;;;;;;6245588;22;20156;-75
2022/09/09 01:45:15;;;;;;;29.35;17.42;;;;;;;;;;6270919;22;20026;-75
2022/09/09 01:47:41;;;;;;;22.60;16.52;;;;;;;;;;6272811;22;20019;-76
2022/09/09 01:50:11;;;;;;;24.65;15.95;;;;;;;;;;6300720;22;20045;-75
2022/09/09 01:52:37;;;;;;;25.30;16.88;;;;;;;;;;6247399;22;20119;-75
2022/09/09 01:55:04;;;;;;;25.90;16.48;;;;;;;;;;6273686;22;20029;-75
2022/09/09 01:57:30;;;;;;;24.42;16.27;;;;;;;;;;6247801;22;20023;-75
2022/09/09 02:00:08;;;;;;;24.17;16.98;;;;;;;;;;6247879;22;20023;-75
2022/09/09 02:02:53;;;;;;;23.55;16.58;;;;;;;;;;6300441;22;20034;-75
2022/09/09 02:05:25;;;;;;;23.17;16.65;;;;;;;;;;6300206;22;20027;-75
2022/09/09 02:07:57;;;;;;;26.42;18.08;;;;;;;;;;6300946;22;20372;-75
2022/09/09 02:10:43;;;;;;;24.83;16.17;;;;;;;;;;6272455;22;20055;-75
2022/09/09 02:13:11;;;;;;;28.08;16.45;;;;;;;;;;6272839;22;20023;-75
2022/09/09 02:15:40;;;;;;;24.90;15.80;;;;;;;;;;6300574;22;20030;-75
2022/09/09 02:18:09;;;;;;;22.85;14.65;;;;;;;;;;6300158;22;20023;-75
2022/09/09 02:20:37;;;;;;;21.52;16.02;;;;;;;;;;6300662;22;20023;-75
2022/09/09 02:23:04;;;;;;;24.65;16.00;;;;;;;;;;6299539;22;20072;-75
2022/09/09 02:25:30;;;;;;;24.58;16.08;;;;;;;;;;6300774;22;20030;-75
2022/09/09 02:28:00;;;;;;;27.90;16.17;;;;;;;;;;6300085;22;20031;-75
2022/09/09 02:30:27;;;;;;;26.50;16.33;;;;;;;;;;6272627;22;20356;-75
2022/09/09 02:32:56;;;;;;;25.20;15.85;;;;;;;;;;6300028;22;20019;-76
2022/09/09 02:35:28;;;;;;;28.40;16.08;;;;;;;;;;6272417;22;20030;-75
2022/09/09 02:37:56;;;;;;;26.80;15.95;;;;;;;;;;6246534;22;20019;-76
2022/09/09 02:40:22;;;;;;;25.05;15.77;;;;;;;;;;6299236;22;20505;-75
2022/09/09 02:42:49;;;;;;;29.05;16.83;;;;;;;;;;6300281;22;20050;-75
2022/09/09 02:45:18;;;;;;;25.10;15.23;;;;;;;;;;6300306;22;20019;-76
2022/09/09 02:47:48;;;;;;;22.60;15.48;;;;;;;;;;6247427;22;20282;-76
2022/09/09 02:50:18;;;;;;;20.77;15.10;;;;;;;;;;6302245;22;20027;-76
2022/09/09 02:53:03;;;;;;;22.45;14.73;;;;;;;;;;6300534;22;20015;-77
2022/09/09 02:55:39;;;;;;;29.95;14.40;;;;;;;;;;6273849;22;20068;-76
2022/09/09 02:58:07;;;;;;;26.70;14.25;;;;;;;;;;6247437;22;20023;-78
2022/09/09 03:00:35;;;;;;;20.73;14.18;;;;;;;;;;6272225;22;20406;-76
2022/09/09 03:03:02;;;;;;;20.90;14.95;;;;;;;;;;6247152;22;20026;-76
2022/09/09 03:05:28;;;;;;;20.92;15.60;;;;;;;;;;6272243;22;20023;-75
2022/09/09 03:07:54;;;;;;;23.83;15.07;;;;;;;;;;6247226;22;20028;-76
2022/09/09 03:10:21;;;;;;;22.92;14.55;;;;;;;;;;6246525;22;20427;-76
2022/09/09 03:12:47;;;;;;;19.23;14.45;;;;;;;;;;6272610;22;20466;-76
2022/09/09 03:15:14;;;;;;;23.85;14.13;;;;;;;;;;6272136;22;20510;-76
2022/09/09 03:17:40;;;;;;;17.15;13.30;;;;;;;;;;6272440;22;20034;-76
2022/09/09 03:20:08;;;;;;;29.77;14.05;;;;;;;;;;6299490;22;20027;-76
2022/09/09 03:22:34;;;;;;;20.15;13.48;;;;;;;;;;6246004;22;20019;-76
2022/09/09 03:25:00;;;;;;;22.40;14.55;;;;;;;;;;6246793;22;20098;-75
2022/09/09 03:27:27;;;;;;;21.88;13.85;;;;;;;;;;6299500;22;20074;-75
2022/09/09 03:29:54;;;;;;;19.15;13.55;;;;;;;;;;6247546;22;20030;-77
2022/09/09 03:32:22;;;;;;;21.67;13.82;;;;;;;;;;6271447;22;20024;-76
2022/09/09 03:34:49;;;;;;;23.30;13.73;;;;;;;;;;6299922;22;20306;-77
2022/09/09 03:37:17;;;;;;;21.40;14.18;;;;;;;;;;6272061;22;20412;-75
2022/09/09 03:39:43;;;;;;;21.35;13.60;;;;;;;;;;6299209;22;20023;-76
2022/09/09 03:42:10;;;;;;;19.17;13.10;;;;;;;;;;6271721;22;20027;-76
2022/09/09 03:44:36;;;;;;;20.58;13.45;;;;;;;;;;6271895;22;20062;-76
2022/09/09 03:47:02;;;;;;;17.10;13.27;;;;;;;;;;6272755;22;20027;-76
2022/09/09 03:49:28;;;;;;;19.58;13.23;;;;;;;;;;6299325;22;20096;-76
2022/09/09 03:51:57;;;;;;;17.95;13.75;;;;;;;;;;6299616;22;20027;-77
2022/09/09 03:54:24;;;;;;;22.40;13.07;;;;;;;;;;6271488;22;20077;-75
2022/09/09 03:56:50;;;;;;;24.63;12.75;;;;;;;;;;6299524;22;20031;-76
2022/09/09 03:59:16;;;;;;;18.48;12.75;;;;;;;;;;6272284;22;20019;-76
2022/09/09 04:01:42;;;;;;;17.50;12.27;;;;;;;;;;6246333;22;20360;-75
2022/09/09 04:04:09;;;;;;;16.52;10.73;;;;;;;;;;6299257;22;20583;-75
2022/09/09 04:06:35;;;;;;;16.42;11.18;;;;;;;;;;6299202;22;20065;-76
2022/09/09 04:09:03;;;;;;;17.02;11.15;;;;;;;;;;6299252;22;20055;-76
2022/09/09 04:11:29;;;;;;;15.05;10.82;;;;;;;;;;6271298;22;20027;-76
2022/09/09 04:13:55;;;;;;;15.55;9.90;;;;;;;;;;6299337;22;20102;-75
2022/09/09 04:16:21;;;;;;;15.18;9.52;;;;;;;;;;6297462;22;20027;-76
2022/09/09 04:18:48;;;;;;;12.70;9.80;;;;;;;;;;6298966;22;20023;-76
2022/09/09 04:21:15;;;;;;;15.52;9.85;;;;;;;;;;6298741;22;20467;-76
2022/09/09 04:23:41;;;;;;;15.00;9.52;;;;;;;;;;6298547;22;20494;-76
2022/09/09 04:26:08;;;;;;;13.10;9.00;;;;;;;;;;6247048;22;20053;-76
2022/09/09 04:28:36;;;;;;;14.00;9.30;;;;;;;;;;6299065;22;20151;-74
2022/09/09 04:31:09;;;;;;;12.77;8.95;;;;;;;;;;6272512;22;20030;-75
2022/09/09 04:33:35;;;;;;;18.90;9.52;;;;;;;;;;6270395;22;20030;-74
2022/09/09 04:36:02;;;;;;;15.55;8.50;;;;;;;;;;6244380;22;20073;-75
2022/09/09 04:38:28;;;;;;;11.50;8.55;;;;;;;;;;6297147;22;20073;-75
2022/09/09 04:40:54;;;;;;;13.15;8.75;;;;;;;;;;6270331;22;20035;-75
2022/09/09 04:43:22;;;;;;;13.57;8.70;;;;;;;;;;6269936;22;20019;-75
2022/09/09 04:45:48;;;;;;;20.40;8.02;;;;;;;;;;6297564;22;20703;-76
2022/09/09 04:48:15;;;;;;;15.82;8.40;;;;;;;;;;6297968;22;20023;-73
2022/09/09 04:50:41;;;;;;;13.30;8.07;;;;;;;;;;6244438;22;20061;-75
2022/09/09 04:53:07;;;;;;;18.48;7.85;;;;;;;;;;6297060;22;20019;-75
2022/09/09 04:55:34;;;;;;;10.98;6.95;;;;;;;;;;6244006;22;20015;-74
2022/09/09 04:58:07;;;;;;;14.93;6.28;;;;;;;;;;6269969;22;20186;-75
2022/09/09 05:00:35;;;;;;;10.48;5.95;;;;;;;;;;6298026;22;20097;-74
2022/09/09 05:03:05;;;;;;;12.60;5.38;;;;;;;;;;6269684;22;20019;-74
2022/09/09 05:05:31;;;;;;;7.38;3.78;;;;;;;;;;6297680;22;20027;-74
2022/09/09 05:08:04;;;;;;;8.02;3.10;;;;;;;;;;6269759;22;20324;-74
2022/09/09 05:10:31;;;;;;;11.87;3.00;;;;;;;;;;6297719;22;20023;-74
2022/09/09 05:12:57;;;;;;;14.88;3.38;;;;;;;;;;6270105;22;20034;-75
2022/09/09 05:15:23;;;;;;;14.73;3.83;;;;;;;;;;6297313;22;20028;-74
2022/09/09 05:17:51;;;;;;;15.13;4.65;;;;;;;;;;6299334;22;20068;-75
2022/09/09 05:20:17;;;;;;;13.82;5.10;;;;;;;;;;6299040;22;20022;-75
2022/09/09 05:22:43;;;;;;;9.00;5.38;;;;;;;;;;6301132;22;20352;-74
2022/09/09 05:25:09;;;;;;;10.02;5.80;;;;;;;;;;6273212;22;20032;-74
2022/09/09 05:27:35;;;;;;;16.52;7.50;;;;;;;;;;6300366;22;20054;-74
2022/09/09 05:30:01;;;;;;;11.18;6.45;;;;;;;;;;6248071;22;20019;-75
2022/09/09 05:32:27;;;;;;;16.23;7.25;;;;;;;;;;6300307;22;20049;-74
2022/09/09 05:34:53;;;;;;;14.13;7.72;;;;;;;;;;6273241;22;20055;-75
2022/09/09 05:37:20;;;;;;;14.02;7.95;;;;;;;;;;6299800;22;20034;-75
2022/09/09 05:39:46;;;;;;;15.38;8.02;;;;;;;;;;6300379;22;20463;-75
2022/09/09 05:42:12;;;;;;;11.95;7.82;;;;;;;;;;6300461;22;20065;-76
2022/09/09 05:44:38;;;;;;;19.30;8.75;;;;;;;;;;6302151;22;20038;-75
2022/09/09 05:47:04;;;;;;;12.90;7.72;;;;;;;;;;6250952;22;20023;-75
2022/09/09 05:49:30;;;;;;;14.70;8.40;;;;;;;;;;6301917;22;20023;-76
2022/09/09 05:51:56;;;;;;;16.00;8.30;;;;;;;;;;6300412;22;20020;-75
2022/09/09 05:54:23;;;;;;;12.85;8.93;;;;;;;;;;6272776;22;20023;-75
2022/09/09 05:56:50;;;;;;;17.10;9.35;;;;;;;;;;6300309;22;20022;-74
2022/09/09 05:59:16;;;;;;;15.90;9.43;;;;;;;;;;6272457;22;20345;-75
2022/09/09 06:01:42;;;;;;;15.07;10.32;;;;;;;;;;6300082;22;20478;-75
2022/09/09 06:04:09;;;;;;;18.42;11.45;;;;;;;;;;6299770;22;20100;-75
2022/09/09 06:06:36;;;;;;;17.17;12.00;;;;;;;;;;6272057;22;20459;-76
2022/09/09 06:09:06;;;;;;;17.25;11.48;;;;;;;;;;6299665;22;20026;-76
2022/09/09 06:11:32;;;;;;;18.10;12.35;;;;;;;;;;6299566;22;20404;-75
2022/09/09 06:13:59;;;;;;;15.57;11.80;;;;;;;;;;6299956;22;20022;-74
2022/09/09 06:16:26;;;;;;;20.17;11.93;;;;;;;;;;6299358;22;20090;-74
2022/09/09 06:18:56;;;;;;;18.83;12.40;;;;;;;;;;6247164;22;20019;-75
2022/09/09 06:21:23;;;;;;;20.08;11.30;;;;;;;;;;6299611;22;20057;-76
2022/09/09 06:23:51;;;;;;;19.15;12.88;;;;;;;;;;6299592;22;20021;-75
2022/09/09 06:26:18;;;;;;;18.08;12.25;;;;;;;;;;6299503;22;20452;-74
2022/09/09 06:28:49;;;;;;;15.57;11.52;;;;;;;;;;6299600;22;20550;-75
2022/09/09 06:31:23;;;;;;;16.60;11.20;;;;;;;;;;6300353;22;20437;-75
2022/09/09 06:33:52;;;;;;;15.75;11.85;;;;;;;;;;6299023;22;20019;-79
2022/09/09 06:36:20;;;;;;;18.48;12.07;;;;;;;;;;6246969;22;20019;-76
2022/09/09 06:38:46;;;;;;;17.15;10.85;;;;;;;;;;6299324;22;20098;-75
2022/09/09 06:41:13;;;;;;;15.23;9.95;;;;;;;;;;6299551;22;20023;-76
2022/09/09 06:43:40;;;;;;;15.73;10.50;;;;;;;;;;6299697;22;20038;-74
2022/09/09 06:46:13;;;;;;;12.55;10.40;;;;;;;;;;6299034;22;20343;-77
2022/09/09 06:48:44;;;;;;;14.50;10.38;;;;;;;;;;6272466;22;20023;-75
2022/09/09 06:51:11;;;;;;;12.52;9.75;;;;;;;;;;6299034;22;20140;-77
2022/09/09 06:53:37;;;;;;;17.00;10.02;;;;;;;;;;6299786;22;20444;-76
2022/09/09 06:56:24;;;;;;;14.85;10.10;;;;;;;;;;6299066;22;20357;-76
2022/09/09 06:58:54;;;;;;;17.35;9.70;;;;;;;;;;6299094;22;20027;-77
2022/09/09 07:01:21;;;;;;;14.77;10.45;;;;;;;;;;6299867;22;20057;-76
2022/09/09 07:03:49;;;;;;;15.38;9.80;;;;;;;;;;6299219;22;20019;-77
2022/09/09 07:06:17;;;;;;;14.02;9.60;;;;;;;;;;6272506;22;20468;-76
2022/09/09 07:08:46;;;;;;;13.55;9.77;;;;;;;;;;6245910;22;20124;-78
2022/09/09 07:11:12;;;;;;;13.43;9.70;;;;;;;;;;6271797;22;20027;-76
2022/09/09 07:13:39;;;;;;;11.45;9.57;;;;;;;;;;6271701;22;20379;-75
2022/09/09 07:16:06;;;;;;;11.55;8.65;;;;;;;;;;6272129;22;20027;-76
2022/09/09 07:18:33;;;;;;;14.00;9.50;;;;;;;;;;6271677;22;20474;-76
2022/09/09 07:20:59;;;;;;;11.43;8.98;;;;;;;;;;6271396;22;20027;-75
2022/09/09 07:23:25;;;;;;;13.50;8.98;;;;;;;;;;6299407;22;20360;-75
2022/09/09 07:25:52;;;;;;;14.18;9.02;;;;;;;;;;6272700;22;20023;-77
2022/09/09 07:28:19;;;;;;;13.20;9.40;;;;;;;;;;6299807;22;20044;-75
2022/09/09 07:30:53;;;;;;;13.82;8.85;;;;;;;;;;6300023;22;20019;-76
2022/09/09 07:33:19;;;;;;;13.60;8.23;;;;;;;;;;6299369;22;20430;-76
2022/09/09 07:35:46;;;;;;;10.30;7.97;;;;;;;;;;6246068;22;20020;-76
2022/09/09 07:38:12;;;;;;;10.63;8.00;;;;;;;;;;6271123;22;20448;-75
2022/09/09 07:40:39;;;;;;;11.70;7.72;;;;;;;;;;6299396;22;20023;-76
2022/09/09 07:43:05;;;;;;;10.25;7.85;;;;;;;;;;6298336;22;20447;-76
2022/09/09 07:45:32;;;;;;;12.75;7.43;;;;;;;;;;6271853;22;20068;-76
2022/09/09 07:47:58;;;;;;;9.00;7.55;;;;;;;;;;6298719;22;20464;-77
2022/09/09 07:50:24;;;;;;;10.18;7.32;;;;;;;;;;6271235;22;20027;-77
2022/09/09 07:52:54;;;;;;;9.52;6.30;;;;;;;;;;6298983;22;20026;-77
2022/09/09 07:55:20;;;;;;;11.15;6.28;;;;;;;;;;6271087;22;20033;-75
2022/09/09 07:57:46;;;;;;;13.68;7.57;;;;;;;;;;6271369;22;20016;-76
2022/09/09 08:00:14;;;;;;;12.52;7.10;;;;;;;;;;6299106;22;20030;-77
2022/09/09 08:02:41;;;;;;;9.77;6.80;;;;;;;;;;6298175;22;20030;-76
2022/09/09 08:05:07;;;;;;;10.73;6.82;;;;;;;;;;6299126;22;20030;-77
2022/09/09 08:07:34;;;;;;;9.35;6.30;;;;;;;;;;6245638;22;20023;-76
2022/09/09 08:10:00;;;;;;;11.63;7.40;;;;;;;;;;6298955;22;20334;-76
2022/09/09 08:12:26;;;;;;;7.20;5.88;;;;;;;;;;6298271;22;20030;-76
2022/09/09 08:14:53;;;;;;;12.35;6.97;;;;;;;;;;6298708;22;20102;-76
2022/09/09 08:17:20;;;;;;;9.63;7.57;;;;;;;;;;6298396;22;20023;-76
2022/09/09 08:19:46;;;;;;;11.57;7.50;;;;;;;;;;6296839;22;20019;-77
2022/09/09 08:22:12;;;;;;;10.52;7.32;;;;;;;;;;6297251;22;20030;-77
2022/09/09 08:24:39;;;;;;;11.30;6.80;;;;;;;;;;6246382;22;20034;-75
2022/09/09 08:27:06;;;;;;;8.93;6.43;;;;;;;;;;6270946;22;20068;-76
2022/09/09 08:29:32;;;;;;;11.65;6.93;;;;;;;;;;6298366;22;20460;-75
2022/09/09 08:31:59;;;;;;;11.20;6.18;;;;;;;;;;6296495;22;20047;-78
2022/09/09 08:34:26;;;;;;;8.63;6.45;;;;;;;;;;6299065;22;20023;-77
2022/09/09 08:36:53;;;;;;;11.27;6.25;;;;;;;;;;6272032;22;20741;-77
2022/09/09 08:39:24;;;;;;;10.48;5.53;;;;;;;;;;6273820;22;20389;-77
2022/09/09 08:42:00;;;;;;;10.27;6.18;;;;;;;;;;6303170;22;20051;-76
2022/09/09 08:44:36;;;;;;;14.93;6.88;;;;;;;;;;6300349;22;20023;-76
2022/09/09 08:47:21;;;;;;;12.82;6.10;;;;;;;;;;6246053;22;20026;-76
2022/09/09 08:49:50;;;;;;;11.23;5.45;;;;;;;;;;6271575;22;20027;-77
2022/09/09 08:52:22;;;;;;;12.60;5.65;;;;;;;;;;6298863;22;20023;-74
2022/09/09 08:54:48;;;;;;;10.80;5.60;;;;;;;;;;6299340;22;20019;-78
2022/09/09 08:57:18;;;;;;;10.73;5.63;;;;;;;;;;6273895;22;20026;-76
2022/09/09 08:59:44;;;;;;;5.70;5.10;;;;;;;;;;6273199;22;20027;-74
2022/09/09 09:02:29;;;;;;;9.07;5.45;;;;;;;;;;6273192;22;20378;-75
2022/09/09 09:05:01;;;;;;;7.05;5.80;;;;;;;;;;6274651;22;20051;-74
2022/09/09 09:07:31;;;;;;;14.13;6.82;;;;;;;;;;6273621;22;20031;-75
2022/09/09 09:10:00;;;;;;;9.60;5.47;;;;;;;;;;6303487;22;20038;-75
2022/09/09 09:12:28;;;;;;;10.82;5.13;;;;;;;;;;6301083;22;20023;-76
2022/09/09 09:14:57;;;;;;;7.40;4.80;;;;;;;;;;6272689;22;20115;-76
2022/09/09 09:17:26;;;;;;;9.55;4.80;;;;;;;;;;6272697;22;20019;-75
2022/09/09 09:19:52;;;;;;;11.02;4.30;;;;;;;;;;6299726;22;20093;-76
2022/09/09 09:22:33;;;;;;;8.77;4.05;;;;;;;;;;6299776;22;20097;-75
2022/09/09 09:25:22;;;;;;;8.63;4.70;;;;;;;;;;6301124;22;20050;-78
2022/09/09 09:28:05;;;;;;;8.02;4.13;;;;;;;;;;6300898;22;20042;-76
2022/09/09 09:30:52;;;;;;;11.57;4.72;;;;;;;;;;6301132;22;20152;-76
2022/09/09 09:33:20;;;;;;;9.65;4.32;;;;;;;;;;6273048;22;20376;-78
2022/09/09 09:35:46;;;;;;;9.05;4.72;;;;;;;;;;6273380;22;20106;-76
2022/09/09 09:38:22;;;;;;;14.50;4.75;;;;;;;;;;6273248;22;20027;-76
2022/09/09 09:40:58;;;;;;;7.82;4.72;;;;;;;;;;6300646;22;20034;-76
2022/09/09 09:43:26;;;;;;;10.40;5.03;;;;;;;;;;6273314;22;20027;-76
2022/09/09 09:45:52;;;;;;;7.72;4.38;;;;;;;;;;6300356;22;20068;-76
2022/09/09 09:48:18;;;;;;;10.07;5.53;;;;;;;;;;6273359;22;20020;-77
2022/09/09 09:50:52;;;;;;;9.13;4.45;;;;;;;;;;6300716;22;20099;-76
2022/09/09 09:53:26;;;;;;;7.07;4.53;;;;;;;;;;6300634;22;20350;-78
2022/09/09 09:55:52;;;;;;;;;;;;;;;;;;6273927;22;20723;-78
2022/09/09 09:58:19;;;;;;;7.68;4.28;;;;;;;;;;6300374;22;20012;-76
2022/09/09 10:00:52;;;;;;;8.60;4.47;;;;;;;;;;6301151;22;20359;-76
2022/09/09 10:03:26;;;;;;;7.38;4.70;;;;;;;;;;6300571;22;20027;-76
2022/09/09 10:05:53;;;;;;;8.93;4.93;;;;;;;;;;6300336;22;20030;-77
2022/09/09 10:08:20;;;;;;;8.05;4.22;;;;;;;;;;6272613;22;20027;-76
2022/09/09 10:10:55;;;;;;;10.70;5.28;;;;;;;;;;6272608;22;20080;-76
2022/09/09 10:13:40;;;;;;;10.25;4.65;;;;;;;;;;6300785;22;20411;-77
2022/09/09 10:16:15;;;;;;;8.27;4.18;;;;;;;;;;6300015;22;20537;-75
2022/09/09 10:18:44;;;;;;;11.18;3.92;;;;;;;;;;6272624;22;20037;-77
2022/09/09 10:21:10;;;;;;;9.57;4.00;;;;;;;;;;6272739;22;20023;-74
2022/09/09 10:23:48;;;;;;;7.72;4.05;;;;;;;;;;6300107;22;20027;-77
2022/09/09 10:26:22;;;;;;;7.35;3.10;;;;;;;;;;6300270;22;20076;-75
2022/09/09 10:28:51;;;;;;;10.18;3.95;;;;;;;;;;6300107;22;20471;-78
2022/09/09 10:31:23;;;;;;;7.32;3.53;;;;;;;;;;6300518;22;20073;-76
2022/09/09 10:33:52;;;;;;;10.65;3.70;;;;;;;;;;6299785;22;20023;-76
2022/09/09 10:36:24;;;;;;;10.77;4.15;;;;;;;;;;6300143;22;20046;-78
2022/09/09 10:38:54;;;;;;;7.30;3.13;;;;;;;;;;6300139;22;20023;-76
2022/09/09 10:41:24;;;;;;;12.00;3.47;;;;;;;;;;6272016;22;20027;-76
2022/09/09 10:44:06;;;;;;;10.05;2.92;;;;;;;;;;6272374;22;20019;-76
2022/09/09 10:46:55;;;;;;;7.82;2.40;;;;;;;;;;6299453;22;20098;-77
2022/09/09 10:49:31;;;;;;;9.18;2.55;;;;;;;;;;6299337;22;20098;-77
2022/09/09 10:51:57;;;;;;;12.85;3.20;;;;;;;;;;6273044;22;20019;-77
2022/09/09 10:54:29;;;;;;;9.75;2.17;;;;;;;;;;6272373;22;20023;-78
2022/09/09 10:56:59;;;;;;;9.77;2.43;;;;;;;;;;6246082;22;20023;-78
2022/09/09 10:59:28;;;;;;;8.10;2.35;;;;;;;;;;6245846;22;20032;-78
2022/09/09 11:01:57;;;;;;;11.52;2.45;;;;;;;;;;6272757;22;20395;-78
2022/09/09 11:04:34;;;;;;;6.32;1.88;;;;;;;;;;6299464;22;20809;-76
2022/09/09 11:07:03;;;;;;;8.98;2.47;;;;;;;;;;6299424;22;20027;-77
2022/09/09 11:09:36;;;;;;;13.32;3.10;;;;;;;;;;6272460;22;20110;-75
2022/09/09 11:12:03;;;;;;;13.05;2.60;;;;;;;;;;6299407;22;20682;-76
2022/09/09 11:14:32;;;;;;;7.47;2.20;;;;;;;;;;6299484;22;20546;-77
2022/09/09 11:17:01;;;;;;;9.40;2.33;;;;;;;;;;6299259;22;20477;-77
2022/09/09 11:19:45;;;;;;;9.63;3.10;;;;;;;;;;6299336;22;20015;-77
2022/09/09 11:22:29;;;;;;;9.18;2.47;;;;;;;;;;6272049;22;20027;-77
2022/09/09 11:24:55;;;;;;;;;;;;;;;;;;6301505;22;20463;-78
2022/09/09 11:27:24;;;;;;;9.13;2.30;;;;;;;;;;6301616;22;19914;-76
2022/09/09 11:29:57;;;;;;;9.20;2.50;;;;;;;;;;6301381;22;20019;-76
2022/09/09 11:32:29;;;;;;;7.30;2.00;;;;;;;;;;6275121;22;20045;-77
2022/09/09 11:34:56;;;;;;;8.05;2.20;;;;;;;;;;6279774;22;20027;-78
2022/09/09 11:37:37;;;;;;;6.30;2.00;;;;;;;;;;6276136;22;20015;-76
2022/09/09 11:40:15;;;;;;;8.27;2.13;;;;;;;;;;6300525;22;20030;-77
2022/09/09 11:42:42;;;;;;;8.73;2.55;;;;;;;;;;6300162;22;20371;-77
2022/09/09 11:45:12;;;;;;;11.27;1.75;;;;;;;;;;6299026;22;20031;-77
2022/09/09 11:47:39;;;;;;;9.27;2.17;;;;;;;;;;6299151;22;20049;-78
2022/09/09 11:50:18;;;;;;;7.25;1.80;;;;;;;;;;6271594;22;20027;-75
2022/09/09 11:52:49;;;;;;;8.57;2.00;;;;;;;;;;6271901;22;20023;-76
2022/09/09 11:55:26;;;;;;;10.00;2.50;;;;;;;;;;6271768;22;20041;-77
2022/09/09 11:58:06;;;;;;;8.10;2.42;;;;;;;;;;6298883;22;20027;-78
2022/09/09 12:00:34;;;;;;;9.80;2.33;;;;;;;;;;6272286;22;20348;-79
2022/09/09 12:03:00;;;;;;;6.75;1.98;;;;;;;;;;6271933;22;20023;-78
2022/09/09 12:05:44;;;;;;;9.52;2.05;;;;;;;;;;6246180;22;20076;-76
2022/09/09 12:08:12;;;;;;;5.88;1.75;;;;;;;;;;6298679;22;20023;-77
2022/09/09 12:10:41;;;;;;;8.88;2.08;;;;;;;;;;6299074;22;20771;-77
2022/09/09 12:13:23;;;;;;;9.05;1.52;;;;;;;;;;6271204;22;20114;-77
2022/09/09 12:15:49;;;;;;;5.50;1.60;;;;;;;;;;6298443;22;20023;-77
2022/09/09 12:18:22;;;;;;;5.57;1.73;;;;;;;;;;6298731;22;20054;-80
2022/09/09 12:21:12;;;;;;;8.25;1.70;;;;;;;;;;6297911;22;20048;-77
2022/09/09 12:23:38;;;;;;;7.20;1.75;;;;;;;;;;6263447;22;20031;-77
2022/09/09 12:26:09;;;;;;;7.03;1.60;;;;;;;;;;6298674;22;20089;-76
2022/09/09 12:28:47;;;;;;;5.25;1.55;;;;;;;;;;6298858;22;20024;-76
2022/09/09 12:31:32;;;;;;;6.05;1.77;;;;;;;;;;6299239;22;20025;-77
2022/09/09 12:34:17;;;;;;;6.40;1.30;;;;;;;;;;6298493;22;20384;-77
2022/09/09 12:36:45;;;;;;;6.13;2.10;;;;;;;;;;6245491;22;20030;-78
2022/09/09 12:39:41;;;;;;;7.50;1.73;;;;;;;;;;6271143;22;20322;-76
2022/09/09 12:42:16;;;;;;;7.68;1.60;;;;;;;;;;6190872;22;20025;-76
2022/09/09 12:44:51;;;;;;;4.03;1.38;;;;;;;;;;6271534;22;20031;-77
2022/09/09 12:47:19;;;;;;;8.38;2.00;;;;;;;;;;6271416;22;20355;-78
2022/09/09 12:49:45;;;;;;;6.60;2.10;;;;;;;;;;6299150;22;20398;-78
2022/09/09 12:52:17;;;;;;;7.45;2.03;;;;;;;;;;6298485;22;20130;-78
2022/09/09 12:54:46;;;;;;;9.25;2.45;;;;;;;;;;6298173;22;20114;-78
2022/09/09 12:57:13;;;;;;;8.93;1.75;;;;;;;;;;6271031;22;20030;-78
2022/09/09 12:59:41;;;;;;;7.93;1.73;;;;;;;;;;6270773;22;20023;-77
2022/09/09 13:02:17;;;;;;;4.82;1.55;;;;;;;;;;6299056;22;20019;-77
2022/09/09 13:04:44;;;;;;;2.97;1.20;;;;;;;;;;6298441;22;20044;-77
2022/09/09 13:07:11;;;;;;;7.45;1.60;;;;;;;;;;6270994;22;20093;-77
2022/09/09 13:09:43;;;;;;;4.53;1.70;;;;;;;;;;6271051;22;20023;-77
2022/09/09 13:12:20;;;;;;;3.33;1.23;;;;;;;;;;6298257;22;20054;-77
2022/09/09 13:14:48;;;;;;;7.72;2.00;;;;;;;;;;6298245;22;20479;-77
2022/09/09 13:17:25;;;;;;;4.90;1.48;;;;;;;;;;6270660;22;20471;-77
2022/09/09 13:19:52;;;;;;;5.72;1.35;;;;;;;;;;6245758;22;20032;-77
2022/09/09 13:22:21;;;;;;;4.70;1.73;;;;;;;;;;6270279;22;20015;-77
2022/09/09 13:24:47;;;;;;;7.88;1.67;;;;;;;;;;6298329;22;20401;-77
2022/09/09 13:27:26;;;;;;;15.63;1.95;;;;;;;;;;6270597;22;20023;-76
2022/09/09 13:29:56;;;;;;;4.57;1.23;;;;;;;;;;6298027;22;20060;-76
2022/09/09 13:32:23;;;;;;;9.77;1.85;;;;;;;;;;6271592;22;20019;-76
2022/09/09 13:34:53;;;;;;;6.45;1.95;;;;;;;;;;6270978;22;20303;-77
2022/09/09 13:37:31;;;;;;;5.85;1.60;;;;;;;;;;6298325;22;20023;-77
2022/09/09 13:39:57;;;;;;;9.35;2.00;;;;;;;;;;6270728;22;20033;-77
2022/09/09 13:42:26;;;;;;;7.78;1.98;;;;;;;;;;6246880;22;20015;-77
2022/09/09 13:44:52;;;;;;;5.90;1.58;;;;;;;;;;6300272;22;20026;-77
2022/09/09 13:47:19;;;;;;;7.68;1.45;;;;;;;;;;6273085;22;20598;-76
2022/09/09 13:49:46;;;;;;;4.70;1.40;;;;;;;;;;6300256;22;20031;-76
2022/09/09 13:52:16;;;;;;;7.15;1.63;;;;;;;;;;6300399;22;20088;-77
2022/09/09 13:54:43;;;;;;;5.35;1.70;;;;;;;;;;6300085;22;20027;-76
2022/09/09 13:57:39;;;;;;;7.22;1.42;;;;;;;;;;6300109;22;20677;-76
2022/09/09 14:00:06;;;;;;;3.83;1.35;;;;;;;;;;6280039;22;20030;-76
2022/09/09 14:02:32;;;;;;;4.88;1.20;;;;;;;;;;6222562;22;20034;-76
2022/09/09 14:04:58;;;;;;;5.95;1.10;;;;;;;;;;6222127;22;20111;-76
2022/09/09 14:07:25;;;;;;;4.95;1.20;;;;;;;;;;6300045;22;20485;-75
2022/09/09 14:09:52;;;;;;;5.20;1.40;;;;;;;;;;6272964;22;20019;-75
2022/09/09 14:12:18;;;;;;;7.63;1.05;;;;;;;;;;6300124;22;20019;-75
2022/09/09 14:14:44;;;;;;;3.58;1.20;;;;;;;;;;6272324;22;20029;-74
2022/09/09 14:17:10;;;;;;;8.60;0.95;;;;;;;;;;6299836;22;20029;-74
2022/09/09 14:19:37;;;;;;;7.55;1.45;;;;;;;;;;6300192;22;20542;-75
2022/09/09 14:22:03;;;;;;;5.45;1.48;;;;;;;;;;6246827;22;20031;-77
2022/09/09 14:24:29;;;;;;;7.95;1.88;;;;;;;;;;6247345;22;20030;-76
2022/09/09 14:26:55;;;;;;;10.98;2.28;;;;;;;;;;6272971;22;20023;-76
2022/09/09 14:29:21;;;;;;;9.63;2.78;;;;;;;;;;6273182;22;20023;-76
2022/09/09 14:31:49;;;;;;;8.00;1.85;;;;;;;;;;6250097;22;20030;-78
2022/09/09 14:34:15;;;;;;;6.70;1.73;;;;;;;;;;6251991;22;20353;-79
2022/09/09 14:36:41;;;;;;;8.40;2.03;;;;;;;;;;6273528;22;20026;-78
2022/09/09 14:39:08;;;;;;;10.50;2.05;;;;;;;;;;6299851;22;20066;-77
2022/09/09 14:41:34;;;;;;;7.95;1.70;;;;;;;;;;6246110;22;20551;-77
2022/09/09 14:44:00;;;;;;;7.00;1.80;;;;;;;;;;6246779;22;20510;-77
2022/09/09 14:46:26;;;;;;;7.22;1.70;;;;;;;;;;6298805;22;20030;-76